Main page
METAR-TAF:

METAR-TAF

Airports :

Castres, France

Castres–Mazamet Airport

latitude: 43-33-25N, longitude: 2-17-21E, elevation: 239 m

Current weather observation

The report was made 20 minutes ago, at 04:30 UTC
Wind 3 kt from variable directions
Temperature 5°C
Humidity 87%
Pressure 1011 hPa
Visibility 10 km or more
no clouds below 1500 m and no cumulonimbus

METAR: LFCK 270430Z AUTO VRB03KT CAVOK 05/03 Q1011

Time: 06:50 (04:50 UTC)

Forecast

The report was made 11 hours and 50 minutes ago, at 17:00 UTC
Forecast valid from 26 at 18 UTC to 27 at 03 UTC
Wind 10 kt from the West
Visibility 10 km or more
no clouds below 1500 m and no cumulonimbus
Becoming
from 26 at 19 UTC to 26 at 21 UTC
Wind 2 kt from variable directions

TAF: LFCK 261700Z 2618/2703 28010KT CAVOK BECMG 2619/2621 VRB02KT

Weather observations and forecasts of more than 4000 airports (METAR and TAF reports).

The available stations are represented by yellow and red dots on the map.

Hover mouse over dot to see the name of the station.

Then click to see weather observations and forecasts.

To change the map : click on the green buttons with a black cross to zoom in, on the green button with a dash to zoom out, or on the green arrows for adjacent maps.


METAR-TAF: